createdAt,value
2023-10-30T00:00:49.394Z,91.57
2023-10-30T00:03:37.602Z,91.51
2023-10-30T00:06:05.964Z,91.74
2023-10-30T00:08:34.307Z,91.78
2023-10-30T00:11:02.484Z,91.76
2023-10-30T00:13:30.558Z,91.65
2023-10-30T00:15:58.722Z,91.67
2023-10-30T00:18:27.127Z,91.79
2023-10-30T00:20:55.686Z,91.93
2023-10-30T00:23:24.058Z,92.08
2023-10-30T00:25:53.193Z,92.06
2023-10-30T00:28:21.328Z,92.03
2023-10-30T00:30:49.682Z,91.95
2023-10-30T00:33:17.991Z,91.93
2023-10-30T00:35:46.156Z,92.11
2023-10-30T00:38:14.332Z,92.10
2023-10-30T00:40:42.504Z,92.14
2023-10-30T00:43:11.328Z,92.14
2023-10-30T00:45:40.070Z,92.37
2023-10-30T00:48:08.443Z,92.25
2023-10-30T00:50:37.043Z,92.55
2023-10-30T00:53:05.409Z,92.67
2023-10-30T00:55:38.197Z,92.57
2023-10-30T00:58:08.915Z,92.72
2023-10-30T01:00:37.156Z,92.79
2023-10-30T01:03:05.744Z,92.87
2023-10-30T01:05:35.382Z,92.87
2023-10-30T01:08:09.819Z,92.73
2023-10-30T01:10:38.390Z,92.80
2023-10-30T01:13:06.574Z,92.86
2023-10-30T01:15:36.179Z,92.88
2023-10-30T01:18:04.803Z,92.61
2023-10-30T01:20:33.844Z,92.65
2023-10-30T01:23:01.913Z,92.40
2023-10-30T01:25:30.589Z,92.22
2023-10-30T01:27:58.866Z,92.60
2023-10-30T01:30:27.108Z,92.50
2023-10-30T01:32:55.468Z,92.42
2023-10-30T01:35:23.735Z,92.32
2023-10-30T01:37:52.067Z,92.51
2023-10-30T01:40:20.141Z,92.54
2023-10-30T01:42:48.412Z,92.53
2023-10-30T01:45:17.336Z,92.61
2023-10-30T01:47:45.513Z,92.75
2023-10-30T01:50:15.595Z,92.87
2023-10-30T01:52:44.686Z,92.90
2023-10-30T01:55:13.378Z,92.83
2023-10-30T01:57:41.580Z,93.01
2023-10-30T02:00:11.151Z,93.20
2023-10-30T02:02:43.481Z,93.47
2023-10-30T02:05:11.903Z,93.71
2023-10-30T02:07:40.072Z,93.75
2023-10-30T02:10:08.790Z,93.99
2023-10-30T02:12:37.283Z,94.06
2023-10-30T02:15:06.687Z,94.38
2023-10-30T02:17:35.135Z,94.52
2023-10-30T02:20:03.287Z,94.45
2023-10-30T02:22:31.357Z,94.65
2023-10-30T02:25:00.454Z,94.69
2023-10-30T02:27:28.747Z,94.89
2023-10-30T02:29:57.011Z,94.85
2023-10-30T02:32:25.188Z,94.97
2023-10-30T02:34:53.959Z,95.04
2023-10-30T02:37:22.034Z,95.13
2023-10-30T02:39:50.389Z,95.06
2023-10-30T02:42:18.672Z,95.16
2023-10-30T02:44:46.863Z,95.28
2023-10-30T02:47:15.027Z,95.26
2023-10-30T02:49:43.407Z,95.30
2023-10-30T02:52:11.585Z,95.27
2023-10-30T02:54:39.795Z,95.44
2023-10-30T02:57:08.459Z,95.43
2023-10-30T02:59:36.711Z,95.44
2023-10-30T03:02:04.981Z,95.45
2023-10-30T03:04:33.770Z,95.39
2023-10-30T03:07:02.453Z,95.37
2023-10-30T03:09:33.135Z,95.53
2023-10-30T03:12:01.358Z,95.43
2023-10-30T03:14:29.535Z,95.59
2023-10-30T03:16:57.598Z,95.71
2023-10-30T03:19:25.679Z,95.81
2023-10-30T03:21:53.843Z,95.92
2023-10-30T03:24:21.948Z,95.84
2023-10-30T03:26:52.032Z,95.81
2023-10-30T03:29:20.304Z,95.97
2023-10-30T03:31:48.738Z,96.00
2023-10-30T03:34:20.193Z,96.18
2023-10-30T03:36:48.567Z,96.21
2023-10-30T03:39:16.801Z,96.18
2023-10-30T03:41:46.050Z,96.15
2023-10-30T03:44:14.256Z,96.17
2023-10-30T03:46:42.441Z,96.12
2023-10-30T03:49:12.135Z,96.12
2023-10-30T03:51:40.357Z,96.24
2023-10-30T03:54:09.737Z,96.25
2023-10-30T03:56:37.893Z,96.23
2023-10-30T03:59:06.058Z,96.51
2023-10-30T04:01:34.565Z,96.60
2023-10-30T04:04:04.274Z,96.75
2023-10-30T04:06:32.591Z,96.92
2023-10-30T04:09:00.895Z,96.98
2023-10-30T04:11:29.069Z,97.14
2023-10-30T04:13:57.144Z,97.04
2023-10-30T04:16:25.540Z,97.14
2023-10-30T04:18:53.687Z,97.01
2023-10-30T04:21:21.920Z,96.93
2023-10-30T04:23:50.134Z,97.00
2023-10-30T04:26:20.659Z,96.94
2023-10-30T04:28:49.142Z,96.78
2023-10-30T04:31:17.344Z,97.00
2023-10-30T04:33:45.447Z,96.92
2023-10-30T04:36:14.682Z,97.20
2023-10-30T04:38:42.881Z,97.15
2023-10-30T04:41:11.030Z,97.16
2023-10-30T04:43:39.100Z,97.31
2023-10-30T04:46:08.420Z,97.55
2023-10-30T04:48:37.311Z,97.71
2023-10-30T04:51:05.565Z,97.81
2023-10-30T04:53:33.673Z,97.93
2023-10-30T04:56:03.429Z,97.93
2023-10-30T04:58:31.621Z,98.12
2023-10-30T05:01:00.409Z,98.48
2023-10-30T05:03:28.694Z,98.58
2023-10-30T05:05:57.058Z,98.74
2023-10-30T05:08:26.253Z,98.70
2023-10-30T05:10:54.320Z,98.81
2023-10-30T05:13:22.391Z,98.93
2023-10-30T05:15:50.601Z,98.87
2023-10-30T05:18:23.600Z,98.88
2023-10-30T05:20:52.640Z,99.04
2023-10-30T05:23:20.917Z,99.02
2023-10-30T05:25:49.089Z,99.14
2023-10-30T05:28:17.544Z,99.12
2023-10-30T05:30:45.928Z,99.15
2023-10-30T05:33:14.233Z,99.15
2023-10-30T05:35:42.393Z,99.32
2023-10-30T05:38:10.464Z,99.16
2023-10-30T05:40:39.356Z,99.27
2023-10-30T05:43:07.532Z,99.31
2023-10-30T05:45:35.665Z,99.18
2023-10-30T05:48:04.076Z,99.22
2023-10-30T05:50:32.611Z,99.19
2023-10-30T05:53:00.828Z,99.14
2023-10-30T05:55:29.314Z,99.23
2023-10-30T05:57:58.307Z,99.16
2023-10-30T06:00:26.642Z,99.00
2023-10-30T06:02:54.991Z,99.05
2023-10-30T06:05:23.595Z,98.89
2023-10-30T06:07:51.709Z,98.84
2023-10-30T06:10:22.347Z,98.80
2023-10-30T06:12:52.040Z,98.88
2023-10-30T06:15:20.258Z,98.97
2023-10-30T06:17:48.433Z,99.28
2023-10-30T06:20:16.664Z,99.66
2023-10-30T06:22:44.957Z,99.69
2023-10-30T06:25:13.015Z,99.77
2023-10-30T06:27:42.654Z,100.00
2023-10-30T06:30:14.176Z,100.00
2023-10-30T06:32:42.720Z,100.00
2023-10-30T06:35:11.654Z,100.00
2023-10-30T06:37:39.814Z,100.00
2023-10-30T06:40:08.898Z,100.00
2023-10-30T06:42:37.401Z,100.00
2023-10-30T06:45:06.516Z,100.00
2023-10-30T06:47:34.774Z,100.00
2023-10-30T06:50:04.109Z,100.00
2023-10-30T06:52:32.433Z,100.00
2023-10-30T06:55:01.594Z,100.00
2023-10-30T06:57:30.053Z,100.00
2023-10-30T06:59:59.001Z,100.00
2023-10-30T07:02:27.318Z,100.00
2023-10-30T07:04:55.657Z,100.00
2023-10-30T07:07:23.828Z,100.00
2023-10-30T07:09:51.925Z,100.00
2023-10-30T07:12:20.207Z,100.00
2023-10-30T07:14:48.626Z,100.00
2023-10-30T07:17:17.290Z,100.00
2023-10-30T07:19:45.506Z,100.00
2023-10-30T07:22:13.876Z,100.00
2023-10-30T07:24:42.109Z,100.00
2023-10-30T07:27:10.332Z,100.00
2023-10-30T07:29:38.399Z,100.00
2023-10-30T07:32:06.891Z,100.00
2023-10-30T07:34:34.958Z,100.00
2023-10-30T07:37:03.119Z,100.00
2023-10-30T07:39:31.535Z,100.00
2023-10-30T07:41:59.875Z,100.00
2023-10-30T07:44:28.358Z,100.00
2023-10-30T07:46:56.464Z,100.00
2023-10-30T07:49:24.800Z,100.00
2023-10-30T07:51:53.111Z,100.00
2023-10-30T07:54:21.460Z,100.00
2023-10-30T07:56:49.725Z,100.00
2023-10-30T07:59:18.214Z,100.00
2023-10-30T08:01:46.957Z,100.00
2023-10-30T08:04:15.398Z,100.00
2023-10-30T08:06:44.336Z,100.00
2023-10-30T08:09:13.576Z,100.00
2023-10-30T08:11:41.935Z,100.00
2023-10-30T08:14:10.124Z,100.00
2023-10-30T08:16:38.308Z,100.00
2023-10-30T08:19:06.460Z,100.00
2023-10-30T08:21:34.771Z,100.00
2023-10-30T08:24:03.108Z,100.00
2023-10-30T08:26:31.490Z,100.00
2023-10-30T08:28:59.662Z,100.00
2023-10-30T08:31:28.182Z,100.00
2023-10-30T08:33:58.792Z,100.00
2023-10-30T08:36:27.188Z,100.00
2023-10-30T08:38:55.838Z,100.00
2023-10-30T08:41:25.367Z,100.00
2023-10-30T08:43:54.289Z,100.00
2023-10-30T08:46:22.666Z,100.00
2023-10-30T08:48:50.991Z,100.00
2023-10-30T08:51:19.281Z,100.00
2023-10-30T08:53:47.532Z,100.00
2023-10-30T08:56:16.007Z,100.00
2023-10-30T08:58:44.698Z,100.00
2023-10-30T09:01:12.784Z,99.99
2023-10-30T09:03:42.916Z,99.71
2023-10-30T09:06:11.516Z,99.48
2023-10-30T09:08:39.836Z,99.33
2023-10-30T09:11:08.009Z,98.75
2023-10-30T09:13:36.182Z,98.06
2023-10-30T09:16:05.840Z,97.68
2023-10-30T09:18:34.073Z,97.13
2023-10-30T09:21:02.546Z,96.92
2023-10-30T09:23:30.919Z,96.50
2023-10-30T09:25:58.988Z,96.17
2023-10-30T09:28:27.288Z,95.75
2023-10-30T09:30:55.446Z,95.61
2023-10-30T09:33:23.867Z,95.81
2023-10-30T09:35:52.197Z,95.89
2023-10-30T09:38:20.468Z,95.36
2023-10-30T09:40:58.468Z,94.85
2023-10-30T09:43:30.052Z,94.39
2023-10-30T09:46:00.322Z,94.20
2023-10-30T09:48:30.152Z,93.65
2023-10-30T09:51:00.064Z,93.08
2023-10-30T09:53:29.174Z,92.74
2023-10-30T09:55:57.740Z,92.41
2023-10-30T09:58:25.918Z,91.45
2023-10-30T10:00:54.236Z,91.00
2023-10-30T10:03:23.208Z,90.32
2023-10-30T10:05:56.583Z,89.58
2023-10-30T10:08:25.877Z,89.39
2023-10-30T10:11:04.186Z,87.79
2023-10-30T10:13:34.800Z,86.20
2023-10-30T10:16:03.442Z,85.78
2023-10-30T10:18:36.344Z,85.15
2023-10-30T10:21:13.273Z,84.13
2023-10-30T10:23:41.474Z,83.23
2023-10-30T10:26:16.463Z,83.18
2023-10-30T10:28:47.656Z,82.98
2023-10-30T10:31:16.299Z,82.41
2023-10-30T10:33:45.674Z,82.48
2023-10-30T10:36:14.912Z,81.98
2023-10-30T10:38:57.816Z,81.75
2023-10-30T10:41:27.309Z,80.84
2023-10-30T10:43:56.973Z,80.16
2023-10-30T10:46:25.304Z,79.56
2023-10-30T10:48:53.671Z,78.50
2023-10-30T10:51:35.652Z,77.44
2023-10-30T10:54:08.931Z,76.91
2023-10-30T10:56:39.692Z,76.37
2023-10-30T10:59:12.740Z,76.17
2023-10-30T11:01:42.664Z,75.77
2023-10-30T11:04:12.863Z,74.22
2023-10-30T11:06:46.862Z,73.60
2023-10-30T11:09:25.781Z,73.17
2023-10-30T11:11:57.297Z,72.38
2023-10-30T11:14:52.105Z,71.40
2023-10-30T11:17:20.164Z,70.69
2023-10-30T11:19:48.558Z,69.86
2023-10-30T11:22:40.140Z,69.09
2023-10-30T11:25:45.307Z,67.80
2023-10-30T11:28:13.372Z,67.00
2023-10-30T11:30:43.751Z,66.96
2023-10-30T11:33:20.050Z,66.29
2023-10-30T11:36:11.991Z,65.27
2023-10-30T11:39:05.144Z,63.73
2023-10-30T11:41:37.396Z,63.63
2023-10-30T11:44:09.514Z,63.44
2023-10-30T11:46:40.047Z,64.06
2023-10-30T11:49:15.655Z,64.57
2023-10-30T11:51:47.986Z,64.49
2023-10-30T11:54:33.508Z,63.82
2023-10-30T11:57:02.089Z,63.99
2023-10-30T11:59:31.595Z,63.83
2023-10-30T12:02:00.096Z,62.98
2023-10-30T12:04:28.872Z,62.51
2023-10-30T12:06:57.100Z,62.44
2023-10-30T12:09:27.260Z,61.94
2023-10-30T12:11:57.119Z,61.72
2023-10-30T12:14:25.664Z,61.27
2023-10-30T12:16:53.877Z,61.25
2023-10-30T12:19:25.509Z,61.20
2023-10-30T12:21:53.877Z,60.80
2023-10-30T12:24:26.363Z,60.78
2023-10-30T12:26:54.589Z,60.54
2023-10-30T12:29:23.879Z,60.51
2023-10-30T12:32:08.348Z,60.66
2023-10-30T12:34:39.893Z,60.30
2023-10-30T12:37:26.506Z,60.47
2023-10-30T12:40:05.273Z,60.51
2023-10-30T12:42:38.050Z,60.16
2023-10-30T12:45:10.685Z,60.21
2023-10-30T12:47:47.581Z,60.04
2023-10-30T12:50:16.860Z,59.51
2023-10-30T12:52:45.140Z,59.18
2023-10-30T12:55:14.769Z,58.98
2023-10-30T12:57:43.372Z,59.33
2023-10-30T13:00:12.714Z,58.89
2023-10-30T13:02:41.545Z,58.78
2023-10-30T13:05:13.417Z,58.61
2023-10-30T13:07:42.348Z,58.64
2023-10-30T13:10:10.626Z,58.68
2023-10-30T13:12:38.750Z,58.97
2023-10-30T13:15:07.688Z,59.29
2023-10-30T13:17:35.967Z,59.38
2023-10-30T13:20:07.760Z,59.60
2023-10-30T13:22:36.099Z,59.90
2023-10-30T13:25:08.560Z,60.17
2023-10-30T13:27:36.997Z,60.18
2023-10-30T13:30:05.863Z,60.40
2023-10-30T13:32:34.590Z,60.92
2023-10-30T13:35:03.202Z,61.36
2023-10-30T13:37:31.484Z,61.77
2023-10-30T13:39:59.915Z,62.03
2023-10-30T13:42:28.139Z,62.44
2023-10-30T13:44:56.610Z,63.05
2023-10-30T13:47:24.786Z,63.51
2023-10-30T13:49:53.906Z,64.12
2023-10-30T13:52:22.061Z,65.04
2023-10-30T13:54:52.146Z,65.91
2023-10-30T13:57:23.874Z,66.68
2023-10-30T13:59:52.100Z,67.12
2023-10-30T14:02:20.236Z,67.22
2023-10-30T14:04:50.620Z,67.32
2023-10-30T14:07:20.860Z,67.80
2023-10-30T14:09:49.404Z,68.60
2023-10-30T14:12:19.984Z,69.31
2023-10-30T14:14:48.200Z,70.18
2023-10-30T14:17:16.574Z,70.74
2023-10-30T14:19:44.744Z,71.08
2023-10-30T14:22:13.044Z,71.43
2023-10-30T14:24:41.452Z,71.68
2023-10-30T14:27:09.679Z,72.30
2023-10-30T14:29:38.163Z,72.82
2023-10-30T14:32:06.786Z,73.21
2023-10-30T14:34:36.956Z,73.72
2023-10-30T14:37:06.366Z,74.27
2023-10-30T14:39:35.502Z,74.50
2023-10-30T14:42:04.148Z,74.93
2023-10-30T14:44:32.216Z,75.45
2023-10-30T14:47:00.388Z,75.64
2023-10-30T14:49:28.763Z,76.07
2023-10-30T14:51:57.042Z,76.58
2023-10-30T14:54:25.123Z,77.01
2023-10-30T14:56:53.378Z,77.46
2023-10-30T14:59:21.653Z,77.74
2023-10-30T15:01:49.755Z,78.08
2023-10-30T15:04:18.203Z,78.42
2023-10-30T15:06:46.913Z,78.82
2023-10-30T15:09:17.621Z,79.12
2023-10-30T15:11:45.802Z,79.59
2023-10-30T15:14:14.086Z,79.74
2023-10-30T15:16:42.266Z,79.98
2023-10-30T15:19:11.624Z,80.33
2023-10-30T15:21:39.825Z,80.73
2023-10-30T15:24:08.653Z,81.34
2023-10-30T15:26:37.179Z,81.57
2023-10-30T15:29:05.360Z,81.72
2023-10-30T15:31:33.626Z,81.92
2023-10-30T15:34:01.775Z,82.14
2023-10-30T15:36:30.493Z,82.41
2023-10-30T15:38:58.767Z,82.80
2023-10-30T15:41:26.936Z,83.12
2023-10-30T15:43:55.307Z,83.41
2023-10-30T15:46:23.629Z,83.77
2023-10-30T15:48:51.976Z,84.05
2023-10-30T15:51:20.143Z,84.08
2023-10-30T15:58:55.517Z,84.94
2023-10-30T16:01:23.626Z,85.18
2023-10-30T16:03:52.444Z,85.56
2023-10-30T16:06:20.900Z,86.01
2023-10-30T16:08:51.136Z,86.01
2023-10-30T16:13:50.487Z,86.78
2023-10-30T16:16:19.034Z,86.98
2023-10-30T16:21:18.575Z,87.98
2023-10-30T16:23:46.857Z,88.25
2023-10-30T16:26:15.033Z,88.30
2023-10-30T16:28:43.343Z,88.26
2023-10-30T16:31:11.713Z,88.40
2023-10-30T16:33:39.854Z,88.73
2023-10-30T16:36:08.337Z,88.60
2023-10-30T16:38:36.513Z,88.79
2023-10-30T16:41:04.902Z,89.17
2023-10-30T16:43:33.193Z,89.42
2023-10-30T16:46:01.243Z,89.58
2023-10-30T16:48:29.621Z,89.81
2023-10-30T16:50:57.880Z,90.14
2023-10-30T16:53:26.154Z,90.09
2023-10-30T16:55:54.353Z,90.03
2023-10-30T16:58:22.549Z,90.38
2023-10-30T17:00:52.847Z,91.08
2023-10-30T17:03:21.190Z,91.09
2023-10-30T17:05:50.398Z,91.03
2023-10-30T17:08:18.578Z,90.90
2023-10-30T17:10:48.782Z,90.95
2023-10-30T17:13:16.964Z,91.20
2023-10-30T17:15:45.238Z,91.21
2023-10-30T17:18:13.612Z,91.28
2023-10-30T17:20:41.889Z,91.53
2023-10-30T17:23:10.277Z,91.63
2023-10-30T17:25:38.476Z,91.81
2023-10-30T17:28:06.608Z,91.71
2023-10-30T17:30:34.890Z,91.60
2023-10-30T17:33:03.127Z,91.27
2023-10-30T17:35:31.642Z,91.53
2023-10-30T17:38:00.787Z,91.39
2023-10-30T17:40:29.029Z,91.65
2023-10-30T17:42:57.389Z,91.53
2023-10-30T17:45:26.277Z,91.53
2023-10-30T17:47:54.350Z,91.57
2023-10-30T17:50:22.943Z,91.79
2023-10-30T17:52:51.261Z,92.01
2023-10-30T17:55:19.623Z,91.95
2023-10-30T17:57:48.066Z,92.01
2023-10-30T18:00:16.337Z,92.21
2023-10-30T18:02:44.636Z,92.31
2023-10-30T18:05:13.090Z,92.60
2023-10-30T18:07:41.195Z,92.80
2023-10-30T18:10:09.654Z,93.02
2023-10-30T18:12:37.841Z,93.31
2023-10-30T18:15:07.500Z,93.79
2023-10-30T18:17:35.835Z,93.93
2023-10-30T18:20:04.739Z,93.68
2023-10-30T18:22:32.989Z,93.91
2023-10-30T18:25:01.241Z,94.10
2023-10-30T18:27:32.827Z,94.16
2023-10-30T18:30:00.959Z,94.43
2023-10-30T18:32:29.422Z,94.79
2023-10-30T18:34:57.873Z,95.10
2023-10-30T18:37:26.099Z,95.06
2023-10-30T18:39:54.777Z,94.99
2023-10-30T18:42:23.152Z,95.12
2023-10-30T18:44:51.396Z,95.13
2023-10-30T18:47:19.873Z,95.18
2023-10-30T18:49:48.455Z,95.35
2023-10-30T18:52:16.867Z,95.31
2023-10-30T18:54:44.950Z,95.33
2023-10-30T18:57:13.118Z,95.60
2023-10-30T18:59:43.060Z,95.88
2023-10-30T19:02:11.653Z,96.58
2023-10-30T19:04:40.573Z,96.62
2023-10-30T19:07:08.871Z,96.88
2023-10-30T19:09:37.044Z,97.08
2023-10-30T19:12:05.751Z,97.08
2023-10-30T19:14:33.941Z,97.80
2023-10-30T19:17:02.539Z,98.25
2023-10-30T19:19:30.776Z,98.50
2023-10-30T19:21:59.969Z,98.81
2023-10-30T19:24:28.127Z,99.36
2023-10-30T19:26:56.302Z,99.24
2023-10-30T19:29:24.882Z,99.20
2023-10-30T19:31:53.261Z,99.03
2023-10-30T19:34:21.562Z,99.34
2023-10-30T19:36:50.524Z,99.53
2023-10-30T19:39:19.015Z,99.69
2023-10-30T19:41:47.181Z,99.81
2023-10-30T19:44:15.669Z,99.80
2023-10-30T19:46:43.878Z,99.96
2023-10-30T19:49:12.114Z,100.00
2023-10-30T19:51:43.507Z,99.84
2023-10-30T19:54:14.388Z,99.91
2023-10-30T19:56:42.867Z,99.93
2023-10-30T19:59:11.153Z,99.90
2023-10-30T20:01:40.867Z,100.00
2023-10-30T20:04:09.739Z,99.93
2023-10-30T20:06:37.919Z,99.76
2023-10-30T20:09:06.085Z,99.56
2023-10-30T20:11:34.701Z,99.23
2023-10-30T20:14:02.950Z,99.01
2023-10-30T20:16:31.035Z,99.01
2023-10-30T20:18:59.391Z,99.11
2023-10-30T20:21:27.570Z,99.10
2023-10-30T20:23:55.834Z,99.16
2023-10-30T20:26:24.008Z,98.97
2023-10-30T20:28:52.214Z,99.24
2023-10-30T20:31:21.261Z,99.25
2023-10-30T20:33:49.449Z,99.30
2023-10-30T20:36:17.621Z,99.51
2023-10-30T20:38:45.897Z,99.89
2023-10-30T20:41:16.237Z,99.75
2023-10-30T20:43:44.331Z,99.70
2023-10-30T20:46:16.355Z,99.94
2023-10-30T20:48:44.545Z,99.45
2023-10-30T20:51:12.704Z,99.12
2023-10-30T20:53:40.869Z,98.93
2023-10-30T20:56:09.047Z,99.15
2023-10-30T20:58:37.121Z,99.22
2023-10-30T21:01:05.290Z,99.31
2023-10-30T21:03:33.456Z,99.10
2023-10-30T21:06:01.703Z,99.05
2023-10-30T21:08:30.007Z,99.49
2023-10-30T21:10:58.565Z,99.63
2023-10-30T21:13:28.167Z,99.28
2023-10-30T21:15:56.371Z,99.36
2023-10-30T21:18:24.442Z,99.47
2023-10-30T21:20:53.429Z,99.88
2023-10-30T21:23:21.702Z,100.00
2023-10-30T21:25:50.968Z,100.00
2023-10-30T21:28:19.175Z,100.00
2023-10-30T21:30:47.617Z,100.00
2023-10-30T21:33:15.826Z,99.99
2023-10-30T21:35:44.001Z,99.93
2023-10-30T21:38:14.535Z,99.91
2023-10-30T21:40:44.422Z,99.46
2023-10-30T21:43:12.613Z,99.34
2023-10-30T21:45:41.169Z,99.41
2023-10-30T21:48:09.399Z,99.65
2023-10-30T21:50:37.541Z,100.00
2023-10-30T21:53:05.764Z,100.00
2023-10-30T21:55:34.122Z,100.00
2023-10-30T21:58:02.260Z,100.00
2023-10-30T22:00:30.330Z,100.00
2023-10-30T22:02:58.458Z,100.00
2023-10-30T22:05:26.883Z,100.00
2023-10-30T22:07:54.955Z,100.00
2023-10-30T22:10:25.689Z,100.00
2023-10-30T22:12:53.859Z,100.00
2023-10-30T22:15:23.560Z,100.00
2023-10-30T22:17:51.870Z,100.00
2023-10-30T22:20:20.216Z,100.00
2023-10-30T22:22:48.316Z,100.00
2023-10-30T22:25:16.561Z,100.00
2023-10-30T22:27:44.633Z,100.00
2023-10-30T22:30:13.658Z,100.00
2023-10-30T22:32:42.899Z,100.00
2023-10-30T22:35:11.343Z,100.00
2023-10-30T22:37:42.121Z,100.00
2023-10-30T22:40:10.927Z,100.00
2023-10-30T22:42:39.405Z,100.00
2023-10-30T22:45:09.475Z,100.00
2023-10-30T22:47:37.627Z,100.00
2023-10-30T22:50:06.982Z,100.00
2023-10-30T22:52:35.309Z,100.00
2023-10-30T22:55:04.459Z,100.00
2023-10-30T22:57:32.636Z,100.00
2023-10-30T23:00:00.920Z,100.00
2023-10-30T23:02:29.384Z,100.00
2023-10-30T23:04:58.911Z,100.00
2023-10-30T23:07:27.680Z,100.00
2023-10-30T23:09:55.863Z,100.00
2023-10-30T23:12:24.058Z,100.00
2023-10-30T23:14:52.199Z,100.00
2023-10-30T23:17:20.368Z,100.00
2023-10-30T23:19:48.645Z,100.00
2023-10-30T23:22:17.842Z,100.00
2023-10-30T23:24:46.013Z,100.00
2023-10-30T23:27:15.925Z,100.00
2023-10-30T23:29:44.119Z,100.00
2023-10-30T23:32:12.287Z,100.00
2023-10-30T23:34:40.476Z,100.00
2023-10-30T23:37:08.630Z,100.00
2023-10-30T23:39:37.323Z,100.00
2023-10-30T23:42:05.884Z,100.00
2023-10-30T23:44:33.950Z,100.00
2023-10-30T23:47:02.204Z,100.00
2023-10-30T23:49:30.409Z,100.00
2023-10-30T23:51:58.468Z,100.00
2023-10-30T23:54:30.921Z,100.00
2023-10-30T23:57:01.885Z,100.00
2023-10-30T23:59:30.048Z,100.00
